Time;durP1;ratioP1;P1;durP2;ratioP2;P2;SDS_P1;SDS_P2;PMS_P1;PMS_P2;Temp;Humidity;BMP_temperature;BMP_pressure;BME280_temperature;BME280_humidity;BME280_pressure;Samples;Min_cycle;Max_cycle;Signal;HPM_P1;HPM_P2
2022/07/12 00:01:03;;;;;;;;;;;12.90;99.90;;;;;;5056631;28;20024;-91
2022/07/12 00:03:29;;;;;;;1.55;0.30;;;12.90;99.90;;;;;;5055922;28;20270;-92
2022/07/12 00:05:54;;;;;;;;;;;12.90;99.90;;;;;;5056298;28;20029;-93
2022/07/12 00:08:20;;;;;;;2.15;0.30;;;12.80;99.90;;;;;;5057607;28;19927;-93
2022/07/12 00:10:46;;;;;;;;;;;12.70;99.90;;;;;;5056133;28;20072;-93
2022/07/12 00:13:11;;;;;;;0.43;0.20;;;12.60;99.90;;;;;;5055852;28;19950;-93
2022/07/12 00:15:37;;;;;;;;;;;12.70;99.90;;;;;;5055877;28;20017;-90
2022/07/12 00:18:03;;;;;;;6.70;0.30;;;12.60;99.90;;;;;;5055869;28;19936;-94
2022/07/12 00:20:29;;;;;;;;;;;12.50;99.90;;;;;;5055952;28;20021;-92
2022/07/12 00:22:55;;;;;;;1.45;0.40;;;12.50;99.90;;;;;;5055582;28;20360;-93
2022/07/12 00:25:20;;;;;;;;;;;12.40;99.90;;;;;;5054799;28;20049;-92
2022/07/12 00:27:46;;;;;;;1.20;0.30;;;12.40;99.90;;;;;;5054114;28;19974;-92
2022/07/12 00:30:12;;;;;;;;;;;12.40;99.90;;;;;;5054991;28;20591;-93
2022/07/12 00:32:37;;;;;;;3.55;0.30;;;12.50;99.90;;;;;;5055349;28;20274;-92
2022/07/12 00:35:03;;;;;;;;;;;12.50;99.90;;;;;;5055417;28;20480;-94
2022/07/12 00:37:29;;;;;;;2.03;0.30;;;12.50;99.90;;;;;;5054481;28;20368;-93
2022/07/12 00:39:55;;;;;;;;;;;12.50;99.90;;;;;;5055538;28;20082;-94
2022/07/12 00:42:20;;;;;;;3.70;0.65;;;12.50;99.90;;;;;;5055061;28;19916;-92
2022/07/12 00:44:46;;;;;;;;;;;12.40;99.90;;;;;;5055730;28;20051;-92
2022/07/12 00:47:37;;;;;;;1.55;0.35;;;12.30;99.90;;;;;;5055904;28;19908;-90
2022/07/12 00:50:12;;;;;;;5.10;0.93;;;12.40;99.90;;;;;;5044918;28;20505;-92
2022/07/12 00:52:39;;;;;;;1.42;0.30;;;12.30;99.90;;;;;;5055019;28;20031;-91
2022/07/12 00:55:06;;;;;;;2.05;0.30;;;12.30;99.90;;;;;;5054655;28;20043;-90
2022/07/12 00:57:33;;;;;;;5.53;0.38;;;12.30;99.90;;;;;;5073177;28;20028;-90
2022/07/12 00:59:59;;;;;;;5.28;0.43;;;12.30;99.90;;;;;;5074000;28;20041;-91
2022/07/12 01:02:25;;;;;;;1.63;0.82;;;12.30;99.90;;;;;;5056033;28;20021;-89
2022/07/12 01:04:52;;;;;;;0.93;0.30;;;12.30;99.90;;;;;;5055548;28;20040;-89
2022/07/12 01:07:18;;;;;;;1.25;0.73;;;12.30;99.90;;;;;;5055386;28;20024;-90
2022/07/12 01:09:44;;;;;;;;;;;12.30;99.90;;;;;;5055892;28;20110;-90
2022/07/12 01:12:10;;;;;;;0.20;0.13;;;12.20;99.90;;;;;;5055553;28;19908;-90
2022/07/12 01:14:39;;;;;;;2.13;0.20;;;12.20;99.90;;;;;;5063040;28;20020;-90
2022/07/12 01:17:06;;;;;;;1.42;0.30;;;12.20;99.90;;;;;;5062901;28;20058;-90
2022/07/12 01:19:34;;;;;;;0.77;0.20;;;12.20;99.90;;;;;;5091941;28;20074;-89
2022/07/12 01:22:02;;;;;;;2.67;0.30;;;12.10;99.90;;;;;;5072165;28;20032;-89
2022/07/12 01:24:27;;;;;;;1.25;0.30;;;12.20;99.90;;;;;;5074405;28;20492;-90
2022/07/12 01:26:53;;;;;;;;;;;12.10;99.90;;;;;;5074522;28;20043;-91
2022/07/12 01:29:20;;;;;;;1.83;0.38;;;12.10;99.90;;;;;;5065030;28;20392;-91
2022/07/12 01:31:45;;;;;;;1.45;0.30;;;12.10;99.90;;;;;;5054090;28;20027;-90
2022/07/12 01:34:12;;;;;;;;;;;12.00;99.90;;;;;;5054682;28;20028;-91
2022/07/12 01:36:39;;;;;;;1.42;0.40;;;12.00;99.90;;;;;;5071519;28;19908;-92
2022/07/12 01:39:04;;;;;;;2.03;0.30;;;12.00;99.90;;;;;;5054955;28;20024;-91
2022/07/12 01:41:31;;;;;;;;;;;12.00;99.90;;;;;;5054574;28;20550;-91
2022/07/12 01:43:56;;;;;;;1.42;0.50;;;12.00;99.90;;;;;;5071319;28;19939;-91
2022/07/12 01:46:22;;;;;;;;;;;12.00;99.90;;;;;;5053761;28;20405;-91
2022/07/12 01:48:48;;;;;;;1.25;0.30;;;12.00;99.90;;;;;;5065831;28;20447;-90
2022/07/12 01:51:13;;;;;;;;;;;12.00;99.90;;;;;;5055864;28;20032;-90
2022/07/12 01:53:39;;;;;;;1.08;0.50;;;12.00;99.90;;;;;;5054114;28;19908;-90
2022/07/12 01:56:05;;;;;;;;;;;12.00;99.90;;;;;;5055834;28;20036;-91
2022/07/12 01:58:31;;;;;;;1.85;0.30;;;12.00;99.90;;;;;;5063610;28;20350;-90
2022/07/12 02:00:56;;;;;;;;;;;12.00;99.90;;;;;;5073571;28;20047;-91
2022/07/12 02:03:22;;;;;;;0.82;0.30;;;12.00;99.90;;;;;;5092768;28;19908;-90
2022/07/12 02:05:48;;;;;;;;;;;12.00;99.90;;;;;;5073969;28;20137;-89
2022/07/12 02:08:13;;;;;;;1.17;0.38;;;12.00;99.90;;;;;;5092012;28;19919;-91
2022/07/12 02:10:39;;;;;;;;;;;12.00;99.90;;;;;;5074198;28;20527;-92
2022/07/12 02:13:06;;;;;;;1.40;0.60;;;12.10;99.90;;;;;;5073876;28;19914;-91
2022/07/12 02:15:32;;;;;;;3.72;0.50;;;12.20;99.90;;;;;;5074432;28;20484;-91
2022/07/12 02:17:58;;;;;;;;;;;12.20;99.90;;;;;;5056921;28;20119;-91
2022/07/12 02:20:24;;;;;;;1.27;0.50;;;12.30;99.90;;;;;;5053437;28;19904;-92
2022/07/12 02:22:49;;;;;;;2.30;0.50;;;12.40;99.90;;;;;;5053294;28;20025;-91
2022/07/12 02:25:15;;;;;;;;;;;12.50;99.90;;;;;;5054597;28;20055;-92
2022/07/12 02:27:41;;;;;;;4.20;0.47;;;12.50;99.90;;;;;;5054207;28;19913;-89
2022/07/12 02:30:08;;;;;;;;;;;12.60;99.90;;;;;;5053903;28;20112;-90
2022/07/12 02:32:33;;;;;;;2.72;0.73;;;12.60;99.90;;;;;;5054205;28;19993;-89
2022/07/12 02:34:59;;;;;;;;;;;12.60;99.90;;;;;;5054041;28;20090;-90
2022/07/12 02:37:25;;;;;;;2.47;0.70;;;12.50;99.90;;;;;;5083976;28;19904;-90
2022/07/12 02:39:51;;;;;;;2.45;0.85;;;12.50;99.90;;;;;;5074648;28;20392;-91
2022/07/12 02:42:17;;;;;;;;;;;12.50;99.90;;;;;;5074968;28;20028;-90
2022/07/12 02:44:43;;;;;;;3.97;1.00;;;12.50;99.90;;;;;;5073409;28;19969;-90
2022/07/12 02:47:08;;;;;;;;;;;12.40;99.90;;;;;;5079325;28;20024;-90
2022/07/12 02:49:34;;;;;;;3.13;1.17;;;12.40;99.90;;;;;;5088123;28;19959;-89
2022/07/12 02:51:59;;;;;;;;;;;12.40;99.90;;;;;;5085062;28;20089;-90
2022/07/12 02:54:25;;;;;;;4.00;1.20;;;12.40;99.90;;;;;;5055933;28;20417;-90
2022/07/12 02:56:51;;;;;;;;;;;12.40;99.90;;;;;;5054316;28;20025;-90
2022/07/12 02:59:16;;;;;;;6.55;2.83;;;12.40;99.90;;;;;;5057813;28;19923;-90
2022/07/12 03:01:42;;;;;;;;;;;12.40;99.90;;;;;;5054511;28;20036;-91
2022/07/12 03:04:08;;;;;;;8.10;3.45;;;12.40;99.90;;;;;;5051684;28;20365;-90
2022/07/12 03:06:33;;;;;;;;;;;12.40;99.90;;;;;;5053132;28;20037;-91
2022/07/12 03:08:59;;;;;;;6.88;3.30;;;12.50;99.90;;;;;;5052426;28;19962;-88
2022/07/12 03:11:24;;;;;;;;;;;12.50;99.90;;;;;;5053360;28;20094;-90
2022/07/12 03:13:50;;;;;;;7.55;2.38;;;12.60;99.90;;;;;;5056831;28;19915;-88
2022/07/12 03:16:16;;;;;;;;;;;12.70;99.90;;;;;;5056738;28;20551;-92
2022/07/12 03:18:43;;;;;;;2.53;0.75;;;12.90;99.90;;;;;;5056368;28;19909;-89
2022/07/12 03:21:09;;;;;;;1.63;0.38;;;13.00;99.90;;;;;;5074060;28;20070;-90
2022/07/12 03:23:35;;;;;;;;;;;13.20;99.90;;;;;;5056639;28;20389;-91
2022/07/12 03:26:01;;;;;;;3.20;1.20;;;13.30;99.90;;;;;;5055735;28;19923;-89
2022/07/12 03:28:27;;;;;;;1.88;0.65;;;13.50;99.90;;;;;;5053742;28;20025;-91
2022/07/12 03:30:52;;;;;;;;;;;13.60;99.90;;;;;;5056340;28;20040;-90
2022/07/12 03:33:18;;;;;;;1.77;0.40;;;13.70;99.90;;;;;;5056038;28;19951;-91
2022/07/12 03:35:43;;;;;;;;;;;13.70;99.90;;;;;;5056614;28;20500;-91
2022/07/12 03:38:09;;;;;;;7.38;4.57;;;13.70;99.90;;;;;;5074855;28;19904;-92
2022/07/12 03:40:34;;;;;;;;;;;13.70;99.90;;;;;;5076333;28;20496;-90
2022/07/12 03:43:00;;;;;;;1.23;0.30;;;13.80;99.90;;;;;;5076827;28;19912;-90
2022/07/12 03:45:26;;;;;;;;;;;13.80;99.90;;;;;;5076125;28;20047;-90
2022/07/12 03:47:51;;;;;;;3.40;1.50;;;13.90;99.90;;;;;;5080408;28;20494;-91
2022/07/12 03:50:17;;;;;;;;;;;13.90;99.90;;;;;;5076452;28;20020;-92
2022/07/12 03:52:43;;;;;;;5.78;1.55;;;14.00;99.90;;;;;;5070016;28;20390;-91
2022/07/12 03:55:11;;;;;;;6.10;3.00;;;14.00;99.90;;;;;;5057247;28;20028;-91
2022/07/12 03:57:37;;;;;;;3.60;1.65;;;14.10;99.90;;;;;;5055869;28;20036;-90
2022/07/12 04:00:08;;;;;;;3.83;1.48;;;14.10;99.90;;;;;;5055465;28;20064;-90
2022/07/12 04:02:33;;;;;;;4.07;0.90;;;14.10;99.90;;;;;;5056375;28;20369;-90
2022/07/12 04:04:59;;;;;;;;;;;14.10;99.90;;;;;;5055814;28;20221;-90
2022/07/12 04:07:24;;;;;;;3.67;0.80;;;14.30;99.90;;;;;;5055699;28;19908;-91
2022/07/12 04:09:50;;;;;;;;;;;14.30;99.90;;;;;;5056391;28;20280;-92
2022/07/12 04:12:15;;;;;;;2.70;0.47;;;14.30;99.90;;;;;;5056262;28;19908;-90
2022/07/12 04:14:41;;;;;;;;;;;14.40;99.90;;;;;;5056286;28;20023;-91
2022/07/12 04:17:07;;;;;;;4.43;0.50;;;14.30;99.90;;;;;;5055218;28;20288;-91
2022/07/12 04:19:33;;;;;;;;;;;14.30;99.90;;;;;;5055979;28;20028;-90
2022/07/12 04:21:59;;;;;;;1.70;0.55;;;14.30;99.90;;;;;;5054974;28;20261;-91
2022/07/12 04:24:25;;;;;;;1.58;0.40;;;14.30;99.90;;;;;;5055565;28;20020;-92
2022/07/12 04:26:51;;;;;;;;;;;14.40;99.90;;;;;;5055668;28;20051;-90
2022/07/12 04:29:17;;;;;;;2.55;0.30;;;14.30;99.90;;;;;;5056147;28;19905;-90
2022/07/12 04:31:43;;;;;;;2.22;0.35;;;14.40;99.90;;;;;;5073071;28;20033;-91
2022/07/12 04:34:09;;;;;;;2.83;0.45;;;14.50;99.90;;;;;;5055692;28;20051;-90
2022/07/12 04:36:35;;;;;;;;;;;14.40;99.90;;;;;;5057141;28;20020;-92
2022/07/12 04:39:01;;;;;;;1.73;0.30;;;14.50;99.90;;;;;;5056012;28;20006;-89
2022/07/12 04:41:27;;;;;;;1.27;0.30;;;14.50;99.90;;;;;;5055780;28;20053;-92
2022/07/12 04:43:52;;;;;;;;;;;14.60;99.90;;;;;;5055657;28;20025;-91
2022/07/12 04:46:18;;;;;;;4.97;0.50;;;14.60;99.90;;;;;;5055725;28;19913;-91
2022/07/12 04:48:43;;;;;;;;;;;14.70;99.90;;;;;;5059263;28;20099;-92
2022/07/12 04:51:09;;;;;;;3.92;0.30;;;14.80;99.90;;;;;;5073528;28;20604;-91
2022/07/12 04:53:35;;;;;;;;;;;14.90;99.90;;;;;;5076602;28;20032;-92
2022/07/12 04:56:00;;;;;;;1.08;0.30;;;15.10;99.90;;;;;;5063636;28;19904;-91
2022/07/12 04:58:26;;;;;;;;;;;15.20;99.90;;;;;;5056015;28;20041;-91
2022/07/12 05:00:51;;;;;;;2.92;0.60;;;15.40;99.90;;;;;;5063348;28;19904;-91
2022/07/12 05:03:17;;;;;;;2.03;0.50;;;15.50;99.90;;;;;;5076184;28;20130;-90
2022/07/12 05:05:43;;;;;;;2.55;0.30;;;15.60;99.90;;;;;;5074473;28;20040;-91
2022/07/12 05:08:09;;;;;;;;;;;15.60;99.90;;;;;;5072425;28;20024;-91
2022/07/12 05:10:34;;;;;;;1.98;0.55;;;15.70;99.90;;;;;;5054913;28;20387;-91
2022/07/12 05:13:00;;;;;;;;;;;15.70;99.90;;;;;;5055171;28;20050;-89
2022/07/12 05:15:25;;;;;;;1.70;0.30;;;15.70;99.90;;;;;;5055862;28;19904;-89
2022/07/12 05:17:51;;;;;;;;;;;15.70;99.90;;;;;;5055502;28;20503;-90
2022/07/12 05:20:16;;;;;;;2.08;0.40;;;15.80;99.90;;;;;;5054599;28;20373;-90
2022/07/12 05:22:42;;;;;;;;;;;16.00;99.90;;;;;;5074289;28;20058;-90
2022/07/12 05:25:08;;;;;;;2.13;0.30;;;16.20;99.90;;;;;;5075033;28;19970;-90
2022/07/12 05:27:37;;;;;;;0.70;0.30;;;16.30;99.90;;;;;;5075159;28;20030;-89
2022/07/12 05:30:04;;;;;;;1.75;0.50;;;16.30;99.90;;;;;;5056306;28;20484;-91
2022/07/12 05:32:30;;;;;;;3.08;0.40;;;16.30;99.90;;;;;;5054758;28;20096;-89
2022/07/12 05:34:56;;;;;;;1.67;0.40;;;16.30;99.90;;;;;;5053148;28;20077;-90
2022/07/12 05:37:24;;;;;;;;;;;16.40;99.90;;;;;;5054525;28;20028;-90
2022/07/12 05:39:50;;;;;;;3.10;0.50;;;16.60;99.90;;;;;;5054215;28;19908;-89
2022/07/12 05:42:16;;;;;;;4.63;0.40;;;16.90;99.90;;;;;;5054315;28;20468;-88
2022/07/12 05:44:42;;;;;;;1.92;0.40;;;17.10;99.90;;;;;;5054848;28;20032;-89
2022/07/12 05:47:07;;;;;;;1.15;0.45;;;17.30;99.90;;;;;;5061153;28;20492;-89
2022/07/12 05:49:33;;;;;;;1.27;0.45;;;17.50;99.90;;;;;;5054608;28;20437;-89
2022/07/12 05:54:43;;;;;;;0.77;0.30;;;18.30;99.10;;;;;;5072455;28;20039;-91
2022/07/12 05:57:08;;;;;;;1.00;0.30;;;19.10;97.70;;;;;;5054653;28;20115;-90
2022/07/12 05:59:37;;;;;;;1.02;0.20;;;20.10;95.90;;;;;;5072614;28;20048;-91
2022/07/12 06:02:04;;;;;;;1.17;0.30;;;21.40;93.40;;;;;;5054597;28;20120;-91
2022/07/12 06:04:30;;;;;;;5.22;0.52;;;23.00;90.00;;;;;;5053904;28;20016;-90
2022/07/12 06:06:56;;;;;;;1.52;0.50;;;24.80;81.00;;;;;;5054106;28;20531;-91
2022/07/12 06:09:22;;;;;;;1.17;0.50;;;26.80;67.00;;;;;;5054570;28;20309;-91
2022/07/12 06:11:48;;;;;;;1.63;0.40;;;28.00;55.60;;;;;;5053694;28;20033;-95
2022/07/12 06:14:13;;;;;;;2.17;0.50;;;28.90;50.40;;;;;;5072127;28;20025;-94
2022/07/12 06:16:39;;;;;;;0.57;0.30;;;30.20;44.20;;;;;;5072169;28;20025;-95
2022/07/12 06:19:04;;;;;;;1.08;0.30;;;29.90;42.30;;;;;;5053858;28;20115;-93
2022/07/12 06:21:30;;;;;;;1.42;0.38;;;30.00;41.50;;;;;;5055031;28;20127;-93
2022/07/12 06:23:56;;;;;;;1.52;0.40;;;29.30;41.30;;;;;;5073299;28;20617;-94
2022/07/12 06:26:21;;;;;;;0.70;0.30;;;29.10;41.90;;;;;;5091414;28;20566;-95
2022/07/12 06:28:47;;;;;;;0.80;0.30;;;28.60;42.60;;;;;;5062663;28;20021;-93
2022/07/12 06:31:13;;;;;;;0.98;0.50;;;28.10;42.60;;;;;;5053102;28;20028;-92
2022/07/12 06:33:38;;;;;;;0.77;0.30;;;27.70;43.40;;;;;;5055548;28;20115;-92
2022/07/12 06:36:04;;;;;;;2.50;0.35;;;27.40;44.50;;;;;;5056073;28;20142;-90
2022/07/12 06:38:30;;;;;;;4.13;0.85;;;27.30;45.00;;;;;;5074874;28;20510;-92
2022/07/12 06:40:55;;;;;;;0.70;0.40;;;27.00;44.90;;;;;;5092290;28;20028;-93
2022/07/12 06:43:21;;;;;;;1.38;0.40;;;26.60;45.70;;;;;;5075415;28;20032;-91
2022/07/12 06:45:46;;;;;;;1.15;0.40;;;26.00;46.90;;;;;;5075338;28;20048;-92
2022/07/12 06:48:12;;;;;;;0.73;0.35;;;25.80;47.30;;;;;;5059290;28;20028;-92
2022/07/12 06:50:38;;;;;;;3.28;0.38;;;25.50;47.80;;;;;;5057743;28;20025;-94
2022/07/12 06:53:03;;;;;;;3.28;0.40;;;25.00;48.70;;;;;;5057255;28;20480;-92
2022/07/12 06:55:30;;;;;;;2.65;0.40;;;24.70;49.40;;;;;;5076287;28;20047;-93
2022/07/12 06:57:55;;;;;;;2.58;0.43;;;24.50;49.90;;;;;;5058000;28;20103;-91
2022/07/12 07:00:21;;;;;;;1.48;0.30;;;24.20;50.40;;;;;;5058362;28;20064;-93
2022/07/12 07:02:47;;;;;;;2.38;0.43;;;24.10;51.00;;;;;;5058952;28;20024;-91
2022/07/12 07:05:15;;;;;;;2.55;0.47;;;24.20;50.60;;;;;;5075267;28;20029;-93
2022/07/12 07:07:41;;;;;;;0.70;0.30;;;24.20;50.90;;;;;;5057395;28;20032;-86
2022/07/12 07:10:07;;;;;;;1.73;0.40;;;24.50;50.40;;;;;;5057040;28;20481;-88
2022/07/12 07:12:32;;;;;;;5.15;0.40;;;24.50;50.30;;;;;;5056575;28;20025;-90
2022/07/12 07:14:58;;;;;;;3.08;0.40;;;24.60;50.10;;;;;;5056888;28;20032;-90
2022/07/12 07:17:24;;;;;;;2.67;0.55;;;24.50;50.00;;;;;;5057269;28;20035;-90
2022/07/12 07:19:49;;;;;;;0.95;0.40;;;24.40;50.80;;;;;;5056714;28;20032;-90
2022/07/12 07:22:15;;;;;;;1.60;0.73;;;24.50;51.20;;;;;;5056659;28;20518;-88
2022/07/12 07:24:41;;;;;;;0.68;0.30;;;24.60;51.10;;;;;;5058422;28;20039;-88
2022/07/12 07:27:07;;;;;;;0.95;0.40;;;24.50;50.90;;;;;;5056576;28;20032;-87
2022/07/12 07:32:17;;;;;;;1.60;0.50;;;24.40;51.10;;;;;;5074700;28;20027;-89
2022/07/12 07:34:43;;;;;;;0.55;0.30;;;24.30;51.30;;;;;;5056533;28;20283;-88
2022/07/12 07:37:09;;;;;;;1.30;0.30;;;24.10;52.10;;;;;;5074309;28;20028;-89
2022/07/12 07:39:35;;;;;;;1.25;0.40;;;24.00;51.60;;;;;;5056858;28;20016;-89
2022/07/12 07:42:01;;;;;;;0.95;0.35;;;24.00;52.20;;;;;;5056978;28;20032;-88
2022/07/12 07:44:27;;;;;;;1.17;0.40;;;24.00;52.40;;;;;;5057336;28;20020;-87
2022/07/12 07:46:53;;;;;;;2.33;0.30;;;24.00;52.70;;;;;;5064761;28;20055;-87
2022/07/12 07:49:19;;;;;;;3.60;0.30;;;24.20;52.70;;;;;;5055552;28;20070;-86
2022/07/12 07:51:44;;;;;;;2.25;0.32;;;24.40;51.40;;;;;;5055771;28;20066;-85
2022/07/12 07:54:10;;;;;;;1.67;0.35;;;24.50;50.80;;;;;;5055611;28;20033;-86
2022/07/12 07:56:35;;;;;;;4.20;0.30;;;24.50;50.90;;;;;;5055741;28;20524;-86
2022/07/12 07:59:01;;;;;;;2.25;0.40;;;24.50;50.40;;;;;;5055080;28;20044;-87
2022/07/12 08:01:42;;;;;;;0.52;0.30;;;24.80;50.80;;;;;;5054560;28;20028;-86
2022/07/12 08:04:18;;;;;;;0.50;0.40;;;25.20;49.40;;;;;;5053623;28;20515;-86
2022/07/12 08:06:43;;;;;;;;;;;25.90;47.70;;;;;;5055835;28;20036;-87
2022/07/12 08:09:09;;;;;;;1.30;0.40;;;26.80;46.40;;;;;;5055504;28;19911;-87
2022/07/12 08:11:35;;;;;;;2.50;0.63;;;27.50;44.70;;;;;;5055274;28;20081;-85
2022/07/12 08:14:02;;;;;;;0.63;0.30;;;28.40;42.90;;;;;;5055124;28;20048;-86
2022/07/12 08:16:28;;;;;;;0.63;0.30;;;29.00;41.20;;;;;;5060586;28;20391;-87
2022/07/12 08:18:54;;;;;;;0.77;0.25;;;29.30;39.20;;;;;;5075200;28;20115;-86
2022/07/12 08:21:19;;;;;;;0.70;0.38;;;29.30;38.30;;;;;;5071042;28;20428;-91
2022/07/12 08:23:45;;;;;;;0.50;0.20;;;28.90;38.70;;;;;;5068433;28;20032;-96
2022/07/12 08:26:11;;;;;;;2.90;0.40;;;28.80;38.00;;;;;;5072883;28;20040;-90
2022/07/12 08:28:36;;;;;;;0.40;0.28;;;28.40;38.00;;;;;;5069508;28;20029;-94
2022/07/12 08:31:02;;;;;;;0.40;0.30;;;28.10;38.40;;;;;;5060312;28;20120;-93
2022/07/12 08:33:28;;;;;;;0.50;0.40;;;28.00;38.20;;;;;;5058293;28;20029;-92
2022/07/12 08:35:54;;;;;;;1.00;0.38;;;28.10;38.40;;;;;;5057363;28;20477;-95
2022/07/12 08:38:20;;;;;;;1.02;0.30;;;28.40;38.00;;;;;;5076611;28;20061;-93
2022/07/12 08:40:46;;;;;;;3.33;0.38;;;29.10;36.90;;;;;;5077042;28;20024;-93
2022/07/12 08:43:12;;;;;;;0.50;0.40;;;29.50;35.40;;;;;;5085968;28;20114;-95
2022/07/12 08:45:38;;;;;;;1.58;0.50;;;30.10;36.80;;;;;;5100303;28;20020;-94
2022/07/12 08:48:03;;;;;;;0.95;0.50;;;30.70;35.20;;;;;;5109144;28;20058;-96
2022/07/12 08:50:29;;;;;;;2.17;0.40;;;31.40;34.20;;;;;;5097795;28;20020;-95
2022/07/12 08:52:56;;;;;;;1.05;0.30;;;31.90;33.50;;;;;;5082835;28;20039;-94
2022/07/12 08:55:30;;;;;;;1.10;0.47;;;32.10;32.70;;;;;;5098944;28;20522;-93
2022/07/12 08:58:06;;;;;;;0.67;0.30;;;32.20;32.30;;;;;;5100906;28;20031;-96
2022/07/12 09:00:32;;;;;;;0.88;0.35;;;32.20;30.70;;;;;;5098750;28;20553;-95
2022/07/12 09:03:00;;;;;;;0.30;0.30;;;32.20;30.50;;;;;;5080098;28;20031;-93
2022/07/12 09:05:27;;;;;;;1.10;0.40;;;32.50;30.60;;;;;;5062899;28;20063;-87
2022/07/12 09:08:05;;;;;;;3.83;0.40;;;32.50;30.20;;;;;;5073056;28;20017;-87
2022/07/12 09:10:30;;;;;;;1.08;0.40;;;32.60;29.90;;;;;;5072166;28;20855;-87
2022/07/12 09:12:56;;;;;;;3.08;0.32;;;32.90;30.00;;;;;;5071383;28;20027;-86
2022/07/12 09:15:24;;;;;;;0.70;0.32;;;32.90;29.10;;;;;;5053954;28;20124;-84
2022/07/12 09:18:01;;;;;;;0.75;0.30;;;32.00;29.40;;;;;;5052495;28;20082;-83
2022/07/12 09:20:32;;;;;;;2.42;0.32;;;31.10;30.40;;;;;;5053415;28;20492;-85
2022/07/12 09:23:04;;;;;;;0.90;0.40;;;29.90;31.20;;;;;;5054062;28;20048;-87
2022/07/12 09:25:31;;;;;;;0.63;0.40;;;28.50;32.70;;;;;;5053724;28;20155;-91
2022/07/12 09:27:58;;;;;;;1.55;0.68;;;28.30;34.20;;;;;;5051543;28;20034;-90
2022/07/12 09:30:32;;;;;;;1.85;0.40;;;29.10;33.20;;;;;;5107980;27;20128;-92
2022/07/12 09:36:17;;;;;;;1.75;0.40;;;30.60;31.30;;;;;;5109776;28;20031;-94
2022/07/12 09:38:54;;;;;;;0.45;0.43;;;31.00;30.40;;;;;;5091219;28;20467;-94
2022/07/12 09:41:23;;;;;;;3.30;0.40;;;31.70;30.50;;;;;;5088898;28;20543;-92
2022/07/12 09:43:50;;;;;;;0.77;0.30;;;32.40;30.00;;;;;;5107748;28;20415;-89
2022/07/12 09:46:17;;;;;;;0.95;0.35;;;32.80;29.50;;;;;;5101917;28;20043;-90
2022/07/12 09:48:44;;;;;;;1.10;0.30;;;33.10;29.90;;;;;;5101285;28;20034;-89
2022/07/12 09:51:13;;;;;;;1.35;0.55;;;33.30;29.50;;;;;;5130883;28;20019;-91
2022/07/12 09:53:43;;;;;;;0.82;0.40;;;32.60;29.10;;;;;;5098107;28;20063;-89
2022/07/12 09:56:12;;;;;;;0.63;0.40;;;32.30;30.20;;;;;;5091345;28;20050;-93
2022/07/12 09:58:51;;;;;;;0.22;0.20;;;32.20;29.20;;;;;;5072035;28;20024;-93
2022/07/12 10:01:17;;;;;;;3.10;0.32;;;31.70;28.80;;;;;;5070423;28;20028;-91
2022/07/12 10:03:44;;;;;;;3.22;0.57;;;30.70;29.30;;;;;;5071610;28;20028;-90
2022/07/12 10:06:12;;;;;;;1.08;0.30;;;29.80;30.50;;;;;;5071205;28;20077;-89
2022/07/12 10:08:37;;;;;;;2.03;0.30;;;29.70;30.90;;;;;;5088840;28;20438;-88
2022/07/12 10:11:05;;;;;;;1.80;0.50;;;29.80;30.90;;;;;;5070483;28;20032;-88
2022/07/12 10:13:32;;;;;;;1.42;0.50;;;29.80;32.10;;;;;;5070641;28;20020;-90
2022/07/12 10:16:00;;;;;;;3.78;0.30;;;29.70;31.60;;;;;;5070720;28;20032;-91
2022/07/12 10:18:27;;;;;;;2.25;0.40;;;29.20;32.20;;;;;;5069805;28;20021;-88
2022/07/12 10:20:53;;;;;;;3.08;0.30;;;28.70;31.70;;;;;;5072033;28;20128;-94
2022/07/12 10:23:37;;;;;;;1.75;0.32;;;28.60;32.80;;;;;;5074134;28;20021;-93
2022/07/12 10:26:15;;;;;;;2.03;0.30;;;28.70;32.90;;;;;;5074814;28;20035;-93
2022/07/12 10:29:06;;;;;;;1.63;0.30;;;28.40;32.60;;;;;;5071525;28;20059;-89
2022/07/12 10:31:40;;;;;;;0.50;0.30;;;27.90;32.70;;;;;;5069581;28;20017;-91
2022/07/12 10:34:22;;;;;;;4.93;0.47;;;27.40;32.00;;;;;;5070254;28;20040;-91
2022/07/12 10:36:56;;;;;;;1.33;0.40;;;26.80;33.00;;;;;;5071497;28;20476;-90
2022/07/12 10:39:28;;;;;;;1.20;0.30;;;26.20;34.20;;;;;;5089013;28;20075;-88
2022/07/12 10:42:17;;;;;;;0.43;0.30;;;25.70;35.80;;;;;;5056526;28;20115;-92
2022/07/12 10:44:48;;;;;;;0.90;0.38;;;25.30;38.90;;;;;;5062071;28;20075;-91
2022/07/12 10:47:17;;;;;;;0.35;0.20;;;24.80;39.30;;;;;;5052504;28;20024;-88
2022/07/12 10:49:52;;;;;;;1.25;0.40;;;24.50;37.80;;;;;;5068768;28;20036;-87
2022/07/12 10:52:24;;;;;;;0.45;0.30;;;24.30;38.40;;;;;;5086831;28;20016;-88
2022/07/12 10:54:50;;;;;;;4.05;0.40;;;24.30;39.50;;;;;;5056021;28;20121;-90
2022/07/12 10:57:43;;;;;;;3.13;0.40;;;24.40;40.00;;;;;;5056471;28;20024;-92
2022/07/12 11:00:10;;;;;;;3.33;0.30;;;24.60;40.20;;;;;;5055883;28;20119;-89
2022/07/12 11:02:36;;;;;;;3.65;0.30;;;24.90;40.50;;;;;;5055807;28;20017;-89
2022/07/12 11:05:03;;;;;;;0.50;0.30;;;25.10;39.50;;;;;;5056180;28;20036;-89
2022/07/12 11:07:29;;;;;;;3.03;0.40;;;25.50;38.30;;;;;;5056385;28;20102;-90
2022/07/12 11:09:55;;;;;;;3.63;0.22;;;25.70;38.70;;;;;;5070739;28;20498;-89
2022/07/12 11:12:29;;;;;;;1.50;0.20;;;26.00;36.80;;;;;;5075591;28;20034;-89
2022/07/12 11:14:54;;;;;;;0.90;0.20;;;26.20;36.40;;;;;;5075962;28;20020;-90
2022/07/12 11:17:28;;;;;;;0.57;0.20;;;26.20;36.10;;;;;;5064803;28;20027;-88
2022/07/12 11:20:03;;;;;;;5.88;0.20;;;26.30;36.50;;;;;;5055553;28;20421;-88
2022/07/12 11:22:29;;;;;;;2.15;0.20;;;26.40;36.10;;;;;;5071587;28;20024;-91
2022/07/12 11:24:55;;;;;;;1.75;0.35;;;26.30;35.90;;;;;;5055689;28;20039;-91
2022/07/12 11:27:20;;;;;;;2.10;0.43;;;26.10;35.90;;;;;;5055106;28;20439;-89
2022/07/12 11:30:00;;;;;;;0.40;0.20;;;26.00;36.00;;;;;;5054895;28;20148;-91
2022/07/12 11:32:43;;;;;;;0.50;0.30;;;26.10;36.20;;;;;;5072906;28;20020;-89
2022/07/12 11:35:19;;;;;;;0.50;0.20;;;26.30;34.90;;;;;;5062491;28;20403;-89
2022/07/12 11:37:57;;;;;;;9.75;0.20;;;26.50;33.60;;;;;;5059256;28;20024;-91
2022/07/12 11:40:28;;;;;;;0.95;0.30;;;26.60;33.90;;;;;;5065940;28;20555;-90
2022/07/12 11:43:05;;;;;;;0.85;0.35;;;26.80;33.60;;;;;;5072940;28;20062;-90
2022/07/12 11:45:34;;;;;;;2.92;0.90;;;26.90;34.60;;;;;;5059308;28;20024;-93
2022/07/12 11:48:01;;;;;;;0.40;0.20;;;26.70;33.80;;;;;;5063928;28;20017;-90
2022/07/12 11:50:29;;;;;;;2.53;0.32;;;26.40;34.00;;;;;;5059009;28;20051;-90
2022/07/12 11:52:55;;;;;;;0.85;0.30;;;26.20;34.70;;;;;;5051676;28;20064;-90
2022/07/12 11:55:21;;;;;;;1.05;0.25;;;26.20;34.20;;;;;;5036973;28;20115;-91
2022/07/12 11:57:47;;;;;;;0.55;0.20;;;26.40;33.70;;;;;;5049133;28;20059;-90
2022/07/12 12:00:14;;;;;;;0.85;0.25;;;26.70;33.70;;;;;;5067726;28;20070;-90
2022/07/12 12:02:39;;;;;;;0.35;0.20;;;26.80;29.90;;;;;;5067732;28;20018;-91
2022/07/12 12:05:06;;;;;;;0.35;0.22;;;26.90;30.50;;;;;;5083389;28;20025;-94
2022/07/12 12:07:32;;;;;;;1.02;0.30;;;26.70;30.30;;;;;;5074307;28;20075;-91
2022/07/12 12:10:14;;;;;;;1.45;0.30;;;26.70;31.30;;;;;;5054882;28;20064;-91
2022/07/12 12:12:48;;;;;;;0.88;0.30;;;26.80;32.10;;;;;;5046118;28;20645;-91
2022/07/12 12:15:33;;;;;;;0.43;0.30;;;26.90;32.20;;;;;;5052966;28;20037;-90
2022/07/12 12:18:06;;;;;;;0.65;0.40;;;27.20;32.90;;;;;;5047991;28;20630;-90
2022/07/12 12:20:41;;;;;;;0.57;0.40;;;27.60;31.30;;;;;;5044525;28;20040;-90
2022/07/12 12:23:16;;;;;;;1.23;0.22;;;27.50;30.20;;;;;;5065356;28;20043;-90
2022/07/12 12:25:42;;;;;;;0.65;0.30;;;27.40;30.70;;;;;;5052272;28;20123;-89
2022/07/12 12:28:07;;;;;;;1.02;0.30;;;27.20;30.80;;;;;;5064233;28;20124;-89
2022/07/12 12:30:35;;;;;;;1.52;0.88;;;27.20;31.50;;;;;;5064777;28;20045;-91
2022/07/12 12:33:03;;;;;;;0.75;0.30;;;27.00;31.40;;;;;;5055355;28;20151;-89
2022/07/12 12:35:37;;;;;;;1.65;0.32;;;26.80;31.60;;;;;;5073071;28;20032;-90
2022/07/12 12:38:11;;;;;;;0.82;0.45;;;26.90;31.90;;;;;;5062534;28;20081;-90
2022/07/12 12:40:37;;;;;;;0.55;0.20;;;26.90;30.90;;;;;;5073248;28;20041;-89
2022/07/12 12:43:07;;;;;;;1.35;0.30;;;26.80;31.30;;;;;;5052677;28;20044;-89
2022/07/12 12:45:33;;;;;;;2.75;0.22;;;26.80;31.80;;;;;;5045382;28;20067;-91
2022/07/12 12:48:05;;;;;;;1.20;0.20;;;26.80;32.20;;;;;;5051512;28;20401;-89
2022/07/12 12:50:46;;;;;;;0.45;0.20;;;27.00;30.60;;;;;;5073142;28;20047;-92
2022/07/12 12:53:16;;;;;;;3.30;0.22;;;27.00;30.60;;;;;;5068665;28;20047;-90
2022/07/12 12:55:47;;;;;;;4.45;0.22;;;27.00;31.30;;;;;;5053034;28;20038;-89
2022/07/12 12:58:14;;;;;;;2.78;0.40;;;27.20;31.50;;;;;;5059928;28;20037;-88
2022/07/12 13:00:45;;;;;;;0.32;0.25;;;27.20;31.00;;;;;;5066623;28;20516;-90
2022/07/12 13:03:13;;;;;;;2.25;0.28;;;27.40;29.60;;;;;;5058325;28;20036;-90
2022/07/12 13:05:40;;;;;;;3.92;0.30;;;27.40;30.00;;;;;;5058104;28;20043;-90
2022/07/12 13:08:08;;;;;;;0.40;0.30;;;27.50;29.20;;;;;;5081667;28;20531;-91
2022/07/12 13:10:34;;;;;;;0.68;0.20;;;27.50;29.10;;;;;;5053499;28;20413;-89